sewlicioushomedecor.com alexa rank chart, sewlicioushomedecor.com alexa rank daily changes

sewlicioushomedecor.com alexa rank chart, sewlicioushomedecor.com alexa rank daily changes

sewlicioushomedecor.com
Actual rank:
948 676

RANK HISTORY

Date Rank Diff
2016/12/04 948 676 -22 263
2016/12/02 970 939 -17 245
2016/12/01 988 184 +177 472
2016/11/30 810 712 +18 114
2016/11/29 792 598 +24 040
2016/11/28 768 558 +33 349
2016/11/27 735 209 +6 737
2016/11/26 728 472 +20 491
2016/11/25 707 981 -47 329
2016/11/24 755 310 -12 895
2016/11/23 768 205 -35 061
2016/11/19 803 266 -7 403
2016/11/18 810 669 -39 763
2016/11/17 850 432 +88 894
2016/11/16 761 538 +37 010
2016/11/15 724 528 +36 021
2016/11/14 688 507 -13 920
2016/11/13 702 427 +12 744
2016/11/12 689 683 +36 819
2016/11/11 652 864 -11 067
2016/11/10 663 931 -1 801
2016/11/09 665 732 -17 941
2016/11/08 683 673 -14 571
2016/11/07 698 244 +4 451
2016/11/06 693 793 -5 040
2016/11/05 698 833 -41 566
2016/11/04 740 399 -910
2016/11/03 741 309 +29 651
2016/11/02 711 658 -10 998
2016/11/01 722 656 -19 912
2016/10/31 742 568 -95 771
2016/10/30 838 339 -40 098
2016/10/29 878 437 -34 319
2016/10/28 912 756 -31 279
2016/10/27 944 035 -16 527
2016/10/26 960 562 +25 674
2016/10/25 934 888 -21 638
2016/10/24 956 526 +48 827
2016/10/23 907 699 -21 208
2016/10/22 928 907 -26 454
2016/10/21 955 361 +406
2016/10/20 954 955 -16 662
2016/10/19 971 617 +36 010
2016/10/18 935 607 +20 096
2016/10/17 915 511 -64 782
2016/10/09 980 293 +20 649
2016/10/08 959 644 -15 510
2016/10/06 975 154

WIDGET FOR YOUR SITE

DOMAINS WITH THE NEAREST RANK

Domain Rank
payameasalooye.ir 948 671
innovet.it 948 672
pinoice.com 948 673
hottest-boys-on-earth.tumblr.com 948 674
rushou.net 948 675
sewlicioushomedecor.com 948 676
nobody.one 948 677
pro-kinetic.info 948 678
ncph.org 948 679
hedgethink.com 948 680
libertadguerrero.net 948 681

DOMAINS WITH THE NEAREST RANK BY TLD .com

Domain Rank
tbchr.com 948 661
sosestudante.com 948 665
equippo.com 948 666
eptrail.com 948 670
pinoice.com 948 673
sewlicioushomedecor.com 948 676
hedgethink.com 948 680
cdroller.com 948 685
dinantia.com 948 687
pornogratisesp.com 948 690
liuyee.com 948 692